createdAt,value
2023-05-19T00:03:33.968Z,100493.88
2023-05-19T00:07:39.458Z,100485.94
2023-05-19T00:11:43.059Z,100491.25
2023-05-19T00:15:46.833Z,100479.78
2023-05-19T00:19:52.510Z,100485.97
2023-05-19T00:23:56.148Z,100474.47
2023-05-19T00:27:59.856Z,100481.50
2023-05-19T00:32:02.841Z,100473.56
2023-05-19T00:36:08.382Z,100474.44
2023-05-19T00:40:11.857Z,100476.19
2023-05-19T00:44:14.912Z,100470.91
2023-05-19T00:48:18.044Z,100465.63
2023-05-19T00:52:22.620Z,100463.00
2023-05-19T00:56:26.490Z,100470.88
2023-05-19T01:00:30.244Z,100463.78
2023-05-19T01:04:34.898Z,100465.53
2023-05-19T01:08:39.978Z,100461.97
2023-05-19T01:12:42.969Z,100458.50
2023-05-19T01:16:50.820Z,100460.22
2023-05-19T01:21:06.499Z,100462.81
2023-05-19T01:25:50.842Z,100466.28
2023-05-19T01:30:23.335Z,100461.88
2023-05-19T01:34:28.073Z,100448.69
2023-05-19T01:38:31.672Z,100449.56
2023-05-19T01:42:37.905Z,100452.16
2023-05-19T01:46:43.255Z,100455.69
2023-05-19T01:50:46.858Z,100451.28
2023-05-19T01:54:49.873Z,100447.78
2023-05-19T01:59:03.820Z,100441.63
2023-05-19T02:03:21.106Z,100444.25
2023-05-19T02:07:32.531Z,100453.88
2023-05-19T02:11:41.329Z,100448.59
2023-05-19T02:15:46.457Z,100442.41
2023-05-19T02:19:52.235Z,100444.16
2023-05-19T02:23:55.417Z,100447.66
2023-05-19T02:27:59.495Z,100449.44
2023-05-19T02:32:07.280Z,100439.75
2023-05-19T02:36:11.712Z,100448.47
2023-05-19T02:40:14.738Z,100438.81
2023-05-19T02:44:17.722Z,100431.78
2023-05-19T02:48:20.781Z,100429.09
2023-05-19T02:52:25.164Z,100436.97
2023-05-19T02:56:28.807Z,100424.59
2023-05-19T03:00:32.223Z,100433.38
2023-05-19T03:04:42.224Z,100441.28
2023-05-19T03:08:46.829Z,100445.66
2023-05-19T03:12:49.894Z,100443.03
2023-05-19T03:16:53.017Z,100448.31
2023-05-19T03:20:56.574Z,100443.91
2023-05-19T03:25:01.068Z,100449.13
2023-05-19T03:29:04.354Z,100457.03
2023-05-19T03:33:11.088Z,100451.78
2023-05-19T03:37:15.344Z,100455.28
2023-05-19T03:41:19.770Z,100455.31
2023-05-19T03:45:23.225Z,100452.75
2023-05-19T03:49:28.184Z,100458.91
2023-05-19T03:53:41.237Z,100456.28
2023-05-19T03:57:45.789Z,100461.56
2023-05-19T04:01:48.976Z,100457.13
2023-05-19T04:05:52.025Z,100455.41
2023-05-19T04:09:55.056Z,100463.28
2023-05-19T04:13:59.517Z,100468.59
2023-05-19T04:18:02.841Z,100464.22
2023-05-19T04:22:06.251Z,100468.59
2023-05-19T04:26:09.342Z,100458.97
2023-05-19T04:30:18.533Z,100457.28
2023-05-19T04:34:22.029Z,100465.22
2023-05-19T04:38:25.777Z,100466.13
2023-05-19T04:42:30.847Z,100464.44
2023-05-19T04:46:37.485Z,100465.34
2023-05-19T04:50:42.135Z,100460.97
2023-05-19T04:54:45.741Z,100467.19
2023-05-19T04:58:49.948Z,100467.19
2023-05-19T05:02:57.645Z,100466.34
2023-05-19T05:07:03.053Z,100467.19
2023-05-19T05:11:06.908Z,100464.69
2023-05-19T05:15:12.134Z,100472.63
2023-05-19T05:19:17.592Z,100477.91
2023-05-19T05:23:21.452Z,100471.88
2023-05-19T05:27:26.192Z,100471.06
2023-05-19T05:31:29.880Z,100477.34
2023-05-19T05:35:34.731Z,100470.34
2023-05-19T05:39:38.050Z,100473.13
2023-05-19T05:43:41.299Z,100473.28
2023-05-19T05:47:45.362Z,100482.19
2023-05-19T05:52:04.848Z,100476.13
2023-05-19T05:56:13.591Z,100471.75
2023-05-19T06:00:27.986Z,100481.44
2023-05-19T06:04:31.216Z,100468.31
2023-05-19T06:08:35.845Z,100475.38
2023-05-19T06:12:40.780Z,100479.00
2023-05-19T06:16:44.243Z,100480.75
2023-05-19T06:20:47.827Z,100477.25
2023-05-19T06:24:52.226Z,100477.28
2023-05-19T06:28:55.976Z,100482.63
2023-05-19T06:32:59.447Z,100479.06
2023-05-19T06:37:03.680Z,100479.06
2023-05-19T06:41:09.404Z,100482.63
2023-05-19T06:45:13.078Z,100487.03
2023-05-19T06:49:16.263Z,100482.59
2023-05-19T06:53:22.027Z,100485.25
2023-05-19T06:57:27.271Z,100489.69
2023-05-19T07:01:31.042Z,100494.97
2023-05-19T07:05:35.488Z,100487.91
2023-05-19T07:09:39.033Z,100486.13
2023-05-19T07:13:43.587Z,100498.53
2023-05-19T07:17:47.789Z,100517.06
2023-05-19T07:21:51.258Z,100509.97
2023-05-19T07:25:56.141Z,100509.09
2023-05-19T07:30:00.851Z,100502.03
2023-05-19T07:34:04.265Z,100491.38
2023-05-19T07:38:07.536Z,100479.91
2023-05-19T07:42:10.609Z,100472.88
2023-05-19T07:46:15.088Z,100466.66
2023-05-19T07:50:18.215Z,100476.34
2023-05-19T07:54:21.578Z,100489.56
2023-05-19T07:58:24.794Z,100493.03
2023-05-19T08:02:29.232Z,100505.38
2023-05-19T08:06:32.444Z,100515.09
2023-05-19T08:10:35.623Z,100500.00
2023-05-19T08:14:38.790Z,100501.72
2023-05-19T08:18:43.436Z,100496.38
2023-05-19T08:22:46.538Z,100501.69
2023-05-19T08:26:49.515Z,100492.78
2023-05-19T08:30:53.473Z,100484.81
2023-05-19T08:34:57.986Z,100482.13
2023-05-19T08:39:01.076Z,100487.41
2023-05-19T08:43:04.342Z,100482.94
2023-05-19T08:47:12.683Z,100482.13
2023-05-19T08:51:25.565Z,100469.66
2023-05-19T08:55:35.441Z,100479.38
2023-05-19T08:59:39.000Z,100476.69
2023-05-19T09:03:43.196Z,100471.34
2023-05-19T09:07:49.338Z,100466.03
2023-05-19T09:11:52.549Z,100465.94
2023-05-19T09:15:57.557Z,100472.03
2023-05-19T09:20:03.003Z,100461.22
2023-05-19T09:24:08.619Z,100462.03
2023-05-19T09:28:11.836Z,100449.50
2023-05-19T09:32:26.130Z,100445.84
2023-05-19T09:36:31.003Z,100443.97
2023-05-19T09:40:35.541Z,100447.44
2023-05-19T09:44:38.752Z,100443.81
2023-05-19T09:48:42.564Z,100437.47
2023-05-19T09:52:45.955Z,100434.47
2023-05-19T09:56:58.694Z,100428.91
2023-05-19T10:01:02.790Z,100429.47
2023-05-19T10:05:07.174Z,100415.84
2023-05-19T10:09:10.332Z,100411.00
2023-05-19T10:13:15.306Z,100418.66
2023-05-19T10:17:18.476Z,100425.50
2023-05-19T10:21:21.459Z,100414.91
2023-05-19T10:25:24.554Z,100418.56
2023-05-19T10:29:31.763Z,100413.22
2023-05-19T10:33:53.168Z,100405.06
2023-05-19T10:38:02.730Z,100396.75
2023-05-19T10:42:14.999Z,100394.75
2023-05-19T10:46:19.561Z,100395.66
2023-05-19T10:50:23.606Z,100395.75
2023-05-19T10:54:43.293Z,100393.31
2023-05-19T10:58:53.239Z,100398.78
2023-05-19T11:03:13.917Z,100401.31
2023-05-19T11:07:19.410Z,100399.09
2023-05-19T11:11:23.356Z,100390.53
2023-05-19T11:15:28.239Z,100379.38
2023-05-19T11:19:33.785Z,100385.13
2023-05-19T11:23:40.183Z,100372.97
2023-05-19T11:27:43.494Z,100375.56
2023-05-19T11:31:46.647Z,100375.72
2023-05-19T11:35:52.033Z,100384.59
2023-05-19T11:39:55.358Z,100371.75
2023-05-19T11:43:58.775Z,100372.03
2023-05-19T11:48:03.425Z,100364.66
2023-05-19T11:52:08.239Z,100365.63
2023-05-19T11:56:13.185Z,100354.94
2023-05-19T12:00:16.651Z,100361.13
2023-05-19T12:04:20.639Z,100361.28
2023-05-19T12:08:27.194Z,100364.16
2023-05-19T12:12:31.253Z,100366.84
2023-05-19T12:16:35.397Z,100369.53
2023-05-19T12:20:39.248Z,100351.66
2023-05-19T12:24:44.573Z,100354.34
2023-05-19T12:28:47.822Z,100352.63
2023-05-19T12:32:52.017Z,100353.50
2023-05-19T12:36:55.227Z,100349.91
2023-05-19T12:41:01.355Z,100346.22
2023-05-19T12:45:05.649Z,100337.25
2023-05-19T12:49:08.649Z,100344.25
2023-05-19T12:53:13.090Z,100343.28
2023-05-19T12:57:18.998Z,100338.75
2023-05-19T13:01:24.458Z,100329.06
2023-05-19T13:05:28.451Z,100331.56
2023-05-19T13:09:35.037Z,100329.72
2023-05-19T13:13:39.480Z,100326.13
2023-05-19T13:17:42.895Z,100339.50
2023-05-19T13:21:47.446Z,100328.66
2023-05-19T13:25:51.600Z,100331.22
2023-05-19T13:29:56.082Z,100325.94
2023-05-19T13:33:59.163Z,100311.34
2023-05-19T13:38:04.320Z,100305.84
2023-05-19T13:42:08.094Z,100302.16
2023-05-19T13:46:12.633Z,100304.78
2023-05-19T13:50:15.860Z,100298.56
2023-05-19T13:54:19.218Z,100289.88
2023-05-19T13:58:22.462Z,100287.28
2023-05-19T14:02:26.944Z,100285.56
2023-05-19T14:06:30.377Z,100280.00
2023-05-19T14:10:33.771Z,100278.13
2023-05-19T14:14:37.038Z,100275.34
2023-05-19T14:18:41.448Z,100278.03
2023-05-19T14:22:44.548Z,100274.63
2023-05-19T14:26:47.521Z,100272.09
2023-05-19T14:30:51.171Z,100267.72
2023-05-19T14:34:55.657Z,100264.22
2023-05-19T14:38:58.710Z,100271.28
2023-05-19T14:43:02.034Z,100265.25
2023-05-19T14:47:07.488Z,100264.38
2023-05-19T14:51:12.070Z,100267.94
2023-05-19T14:55:15.132Z,100266.88
2023-05-19T14:59:18.118Z,100263.16
2023-05-19T15:03:23.249Z,100271.13
2023-05-19T15:07:28.165Z,100270.16
2023-05-19T15:11:31.259Z,100265.75
2023-05-19T15:15:34.253Z,100260.59
2023-05-19T15:19:37.631Z,100260.81
2023-05-19T15:23:42.505Z,100266.13
2023-05-19T15:27:45.882Z,100265.25
2023-05-19T15:31:51.289Z,100267.78
2023-05-19T15:35:54.406Z,100266.00
2023-05-19T15:39:58.815Z,100267.03
2023-05-19T15:44:02.616Z,100277.03
2023-05-19T15:48:06.132Z,100273.56
2023-05-19T15:52:09.266Z,100255.88
2023-05-19T15:56:14.458Z,100256.72
2023-05-19T16:00:17.601Z,100249.69
2023-05-19T16:04:20.970Z,100251.44
2023-05-19T16:08:24.357Z,100249.66
2023-05-19T16:12:29.537Z,100249.63
2023-05-19T16:16:32.735Z,100253.13
2023-05-19T16:20:35.847Z,100248.75
2023-05-19T16:24:38.922Z,100261.16
2023-05-19T16:28:43.626Z,100265.69
2023-05-19T16:32:46.705Z,100258.63
2023-05-19T16:36:49.753Z,100254.28
2023-05-19T16:40:52.831Z,100263.34
2023-05-19T16:44:57.337Z,100264.50
2023-05-19T16:49:00.383Z,100254.06
2023-05-19T16:53:03.391Z,100252.47
2023-05-19T16:57:07.010Z,100247.34
2023-05-19T17:01:12.027Z,100249.25
2023-05-19T17:05:15.245Z,100259.09
2023-05-19T17:09:24.907Z,100253.81
2023-05-19T17:13:29.045Z,100260.06
2023-05-19T17:17:33.544Z,100255.66
2023-05-19T17:21:36.673Z,100258.41
2023-05-19T17:25:39.678Z,100255.72
2023-05-19T17:29:42.801Z,100261.97
2023-05-19T17:33:47.305Z,100268.31
2023-05-19T17:37:51.904Z,100263.03
2023-05-19T17:41:54.931Z,100263.97
2023-05-19T17:45:59.574Z,100255.22
2023-05-19T17:50:06.105Z,100253.50
2023-05-19T17:54:09.806Z,100260.69
2023-05-19T17:58:13.226Z,100255.50
2023-05-19T18:02:17.249Z,100265.47
2023-05-19T18:06:22.482Z,100262.06
2023-05-19T18:10:28.522Z,100269.28
2023-05-19T18:14:31.559Z,100261.44
2023-05-19T18:18:37.322Z,100268.72
2023-05-19T18:22:41.771Z,100260.84
2023-05-19T18:26:44.912Z,100263.69
2023-05-19T18:30:48.033Z,100260.28
2023-05-19T18:34:51.105Z,100261.31
2023-05-19T18:38:58.118Z,100257.88
2023-05-19T18:43:01.358Z,100258.00
2023-05-19T18:47:04.413Z,100264.31
2023-05-19T18:51:07.807Z,100260.88
2023-05-19T18:55:12.472Z,100267.22
2023-05-19T18:59:15.601Z,100264.66
2023-05-19T19:03:18.606Z,100270.09
2023-05-19T19:07:21.701Z,100269.28
2023-05-19T19:11:26.349Z,100270.19
2023-05-19T19:15:29.463Z,100286.22
2023-05-19T19:19:32.668Z,100275.66
2023-05-19T19:23:35.921Z,100281.94
2023-05-19T19:27:40.271Z,100284.75
2023-05-19T19:31:43.702Z,100290.19
2023-05-19T19:35:47.323Z,100283.22
2023-05-19T19:39:50.499Z,100290.50
2023-05-19T19:43:55.017Z,100294.16
2023-05-19T19:47:58.211Z,100299.53
2023-05-19T19:52:01.337Z,100300.44
2023-05-19T19:56:05.263Z,100302.25
2023-05-19T20:00:10.977Z,100309.38
2023-05-19T20:04:14.230Z,100312.94
2023-05-19T20:08:17.343Z,100311.22
2023-05-19T20:12:20.586Z,100316.53
2023-05-19T20:16:25.198Z,100322.75
2023-05-19T20:20:28.293Z,100308.63
2023-05-19T20:24:31.266Z,100318.47
2023-05-19T20:28:35.140Z,100308.81
2023-05-19T20:32:40.040Z,100308.84
2023-05-19T20:36:43.321Z,100308.94
2023-05-19T20:40:48.508Z,100302.03
2023-05-19T20:44:52.126Z,100302.19
2023-05-19T20:48:56.485Z,100299.63
2023-05-19T20:52:59.579Z,100299.72
2023-05-19T20:57:06.438Z,100295.34
2023-05-19T21:01:09.625Z,100306.88
2023-05-19T21:05:14.032Z,100297.22
2023-05-19T21:09:17.074Z,100291.06
2023-05-19T21:13:20.374Z,100302.63
2023-05-19T21:17:23.461Z,100308.88
2023-05-19T21:21:27.856Z,100307.22
2023-05-19T21:25:31.359Z,100301.06
2023-05-19T21:29:34.455Z,100309.94
2023-05-19T21:33:37.558Z,100315.34
2023-05-19T21:37:42.101Z,100313.63
2023-05-19T21:41:45.171Z,100326.06
2023-05-19T21:45:48.389Z,100322.59
2023-05-19T21:49:51.552Z,100315.56
2023-05-19T21:53:56.174Z,100315.63
2023-05-19T21:58:00.979Z,100313.03
2023-05-19T22:02:06.355Z,100313.13
2023-05-19T22:06:09.739Z,100313.22
2023-05-19T22:10:14.132Z,100321.22
2023-05-19T22:14:17.357Z,100308.88
2023-05-19T22:18:20.400Z,100314.19
2023-05-19T22:22:23.512Z,100324.81
2023-05-19T22:26:28.106Z,100323.09
2023-05-19T22:30:31.249Z,100326.69
2023-05-19T22:34:34.309Z,100323.16
2023-05-19T22:38:37.548Z,100332.03
2023-05-19T22:42:41.914Z,100330.31
2023-05-19T22:46:45.314Z,100335.63
2023-05-19T22:50:48.319Z,100330.38
2023-05-19T22:54:51.411Z,100328.63
2023-05-19T22:58:56.146Z,100318.94
2023-05-19T23:02:59.339Z,100315.44
2023-05-19T23:07:02.402Z,100317.22
2023-05-19T23:11:05.515Z,100320.75
2023-05-19T23:15:11.904Z,100313.69
2023-05-19T23:19:15.236Z,100304.91
2023-05-19T23:23:18.332Z,100312.84
2023-05-19T23:27:21.457Z,100300.53
2023-05-19T23:31:25.979Z,100292.59
2023-05-19T23:35:29.517Z,100300.56
2023-05-19T23:39:32.566Z,100298.84
2023-05-19T23:43:35.838Z,100305.91
2023-05-19T23:47:40.419Z,100297.97
2023-05-19T23:51:43.497Z,100297.09
2023-05-19T23:55:47.382Z,100308.59
2023-05-19T23:59:50.482Z,100301.53
